x

South Bass Island, Oh (sbio1) Weather Station

11:00pm - Sat 26th Jul 2014 All times are CDT. -5 hours from GMT.

  • Wind
    17mph, 20mph gusts
  • Air Temp 75°f
  • Sea Pressure 1008.6mb
  • South Bass Island, Oh
  • South Bass Island, Oh

More Historic Weather Station data

Upgrade to MSW Pro to gain access to the past 30 days of data for over 8000 Wavebouys and Weather Stations around the globe.

Join Pro

Comparision Forecast

View Surf forecast
   
Sat 07/26 11:00pm 17 20 mph 1008.6mb 75f
10:00pm 16 17 mph 1008.8mb 75f
9:00pm 9
mph
1009.2mb 75f
8:00pm 10 11 mph 1009.4mb 75f
7:00pm 6
mph
1009.1mb 74f
6:00pm 9 10 mph 1008.9mb 75f
5:00pm 9 10 mph 1009.3mb 74f
4:00pm 16 18 mph 1009.7mb 76f
3:00pm 11 13 mph 1010mb 76f
2:00pm 13 15 mph 1010.6mb 77f
1:00pm 7
mph
1011.7mb 76f
12:00pm 7 8 mph 1012.1mb 76f
11:00am 7 8 mph 1012.6mb 76f
10:00am 8 9 mph 1013mb 73f
9:00am 11 14 mph 1013.4mb 71f
8:00am 10 13 mph 1013.5mb 70f
7:00am 11 13 mph 1013.8mb 70f
6:00am 15
mph
1013.6mb 69f
5:00am 13 14 mph 1013.7mb 69f
4:00am 8 9 mph 1013.9mb 68f
3:00am 7 8 mph 1014.1mb 68f
2:00am 8 9 mph 1014.6mb 69f
1:00am 9 10 mph 1015.1mb 70f
12:00am 7
mph
1015.3mb 70f
Fri 07/25 11:00pm 3 5 mph 1015.4mb 66f
10:00pm  -  1 mph 1015.3mb 68f
9:00pm 7 8 mph 1015.3mb 71f
8:00pm 13 14 mph 1015.3mb 73f
7:00pm 11 13 mph 1015.2mb 74f
6:00pm 10 11 mph 1015.2mb 74f
5:00pm 8
mph
1015.3mb 75f
4:00pm 8 9 mph 1015.4mb 74f
3:00pm 8 9 mph 1016.1mb 74f
2:00pm 11 13 mph 1016.7mb 72f
1:00pm 7
mph
1017.4mb 72f
12:00pm 9 10 mph 1018.3mb 70f
11:00am 10 11 mph 1018.7mb 69f
10:00am 8 10 mph 1019.3mb 67f
9:00am 6 7 mph 1019.7mb 66f
8:00am 13 15 mph 1020mb 65f
7:00am 8 9 mph 1019mb 65f
6:00am 9 10 mph 1018.9mb 65f
5:00am 9 10 mph 1018.9mb 66f
4:00am 8 10 mph 1018.2mb 66f
3:00am 10 11 mph 1017.8mb 67f
2:00am 7 8 mph 1017.5mb 67f
1:00am 6
mph
1017.7mb 67f